createdAt,value
2019-05-29T00:00:38.208Z,100108.13
2019-05-29T00:03:06.357Z,100119.39
2019-05-29T00:05:34.234Z,100111.51
2019-05-29T00:08:02.073Z,100122.30
2019-05-29T00:10:29.891Z,100120.64
2019-05-29T00:12:57.717Z,100125.88
2019-05-29T00:15:25.596Z,100129.17
2019-05-29T00:17:53.386Z,100137.19
2019-05-29T00:20:21.181Z,100138.48
2019-05-29T00:22:48.960Z,100137.85
2019-05-29T00:25:16.733Z,100141.52
2019-05-29T00:27:44.523Z,100143.64
2019-05-29T00:30:13.513Z,100142.84
2019-05-29T00:32:41.356Z,100148.20
2019-05-29T00:35:10.233Z,100148.16
2019-05-29T00:37:38.119Z,100158.42
2019-05-29T00:40:06.714Z,100154.80
2019-05-29T00:42:34.647Z,100162.10
2019-05-29T00:45:02.737Z,100168.39
2019-05-29T00:47:30.621Z,100166.99
2019-05-29T00:49:59.257Z,100174.62
2019-05-29T00:52:27.055Z,100175.90
2019-05-29T00:54:54.836Z,100175.54
2019-05-29T00:57:22.671Z,100172.84
2019-05-29T00:59:50.435Z,100181.78
2019-05-29T01:02:18.308Z,100179.72
2019-05-29T01:04:46.171Z,100181.22
2019-05-29T01:07:14.191Z,100175.86
2019-05-29T01:09:42.045Z,100190.69
2019-05-29T01:12:10.804Z,100191.61
2019-05-29T01:14:49.560Z,100199.59
2019-05-29T01:17:08.453Z,100204.05
2019-05-29T01:19:36.235Z,100196.25
2019-05-29T01:22:04.159Z,100209.17
2019-05-29T01:24:32.043Z,100201.06
2019-05-29T01:26:59.866Z,100207.77
2019-05-29T01:29:27.661Z,100220.45
2019-05-29T01:31:55.463Z,100229.45
2019-05-29T01:34:23.981Z,100233.45
2019-05-29T01:36:51.885Z,100232.91
2019-05-29T01:39:19.641Z,100230.28
2019-05-29T01:41:47.437Z,100232.86
2019-05-29T01:44:15.382Z,100237.02
2019-05-29T01:46:43.220Z,100240.47
2019-05-29T01:49:11.038Z,100244.16
2019-05-29T01:51:38.882Z,100248.50
2019-05-29T01:54:06.750Z,100252.04
2019-05-29T01:56:34.569Z,100257.30
2019-05-29T01:59:02.370Z,100258.56
2019-05-29T02:01:30.191Z,100266.38
2019-05-29T02:03:57.990Z,100263.06
2019-05-29T02:06:25.761Z,100266.41
2019-05-29T02:08:53.537Z,100274.94
2019-05-29T02:11:21.351Z,100277.87
2019-05-29T02:13:49.110Z,100272.42
2019-05-29T02:16:16.923Z,100277.23
2019-05-29T02:18:44.747Z,100277.70
2019-05-29T02:21:12.547Z,100280.92
2019-05-29T02:23:40.307Z,100281.53
2019-05-29T02:26:08.082Z,100291.46
2019-05-29T02:28:35.891Z,100285.41
2019-05-29T02:31:03.822Z,100293.42
2019-05-29T02:33:31.640Z,100294.17
2019-05-29T02:35:59.449Z,100297.95
2019-05-29T02:38:27.674Z,100307.55
2019-05-29T02:40:56.948Z,100310.48
2019-05-29T02:43:25.994Z,100306.80
2019-05-29T02:45:55.342Z,100307.17
2019-05-29T02:48:24.964Z,100307.21
2019-05-29T02:50:52.946Z,100317.03
2019-05-29T02:53:22.260Z,100324.02
2019-05-29T02:55:50.238Z,100322.12
2019-05-29T02:58:18.065Z,100329.29
2019-05-29T03:00:54.094Z,100335.58
2019-05-29T03:03:24.425Z,100345.51
2019-05-29T03:05:54.167Z,100352.03
2019-05-29T03:08:22.362Z,100351.30
2019-05-29T03:10:50.736Z,100353.91
2019-05-29T03:13:18.704Z,100352.87
2019-05-29T03:15:46.724Z,100355.81
2019-05-29T03:18:14.603Z,100358.43
2019-05-29T03:20:42.374Z,100365.41
2019-05-29T03:23:10.211Z,100371.89
2019-05-29T03:25:38.012Z,100372.92
2019-05-29T03:28:05.801Z,100378.88
2019-05-29T03:30:41.255Z,100385.02
2019-05-29T03:33:03.322Z,100397.32
2019-05-29T03:35:38.545Z,100395.82
2019-05-29T03:38:00.794Z,100400.19
2019-05-29T03:40:29.446Z,100402.15
2019-05-29T03:42:58.256Z,100416.23
2019-05-29T03:45:26.775Z,100419.75
2019-05-29T03:47:55.157Z,100424.64
2019-05-29T03:50:22.976Z,100430.14
2019-05-29T03:52:51.069Z,100426.81
2019-05-29T03:55:18.840Z,100438.45
2019-05-29T03:57:46.665Z,100438.17
2019-05-29T04:00:15.352Z,100441.00
2019-05-29T04:02:43.117Z,100450.67
2019-05-29T04:05:10.906Z,100455.10
2019-05-29T04:07:38.737Z,100465.78
2019-05-29T04:10:07.072Z,100467.87
2019-05-29T04:12:35.513Z,100472.14
2019-05-29T04:15:04.029Z,100486.56
2019-05-29T04:17:35.498Z,100483.70
2019-05-29T04:20:04.545Z,100490.97
2019-05-29T04:22:43.427Z,100496.69
2019-05-29T04:25:13.005Z,100498.35
2019-05-29T04:27:42.172Z,100498.13
2019-05-29T04:30:11.745Z,100503.53
2019-05-29T04:32:41.297Z,100506.39
2019-05-29T04:35:09.264Z,100516.97
2019-05-29T04:37:39.398Z,100518.84
2019-05-29T04:40:07.481Z,100512.34
2019-05-29T04:42:36.962Z,100521.05
2019-05-29T04:45:05.560Z,100526.75
2019-05-29T04:47:35.083Z,100537.75
2019-05-29T04:50:03.219Z,100545.50
2019-05-29T04:52:31.460Z,100546.42
2019-05-29T04:54:59.442Z,100552.50
2019-05-29T04:57:27.233Z,100554.48
2019-05-29T04:59:55.045Z,100563.95
2019-05-29T05:02:22.821Z,100558.92
2019-05-29T05:04:50.614Z,100556.21
2019-05-29T05:07:18.459Z,100568.75
2019-05-29T05:09:46.261Z,100574.55
2019-05-29T05:12:14.080Z,100574.25
2019-05-29T05:14:41.838Z,100580.50
2019-05-29T05:17:24.968Z,100593.57
2019-05-29T05:19:40.142Z,100594.17
2019-05-29T05:22:08.086Z,100603.27
2019-05-29T05:24:36.408Z,100605.45
2019-05-29T05:27:04.389Z,100613.42
2019-05-29T05:29:32.211Z,100619.14
2019-05-29T05:32:00.098Z,100621.83
2019-05-29T05:34:27.849Z,100624.94
2019-05-29T05:36:55.649Z,100632.66
2019-05-29T05:39:23.779Z,100636.64
2019-05-29T05:41:51.817Z,100640.76
2019-05-29T05:44:19.584Z,100643.58
2019-05-29T05:46:47.393Z,100638.97
2019-05-29T05:49:15.158Z,100642.42
2019-05-29T05:51:44.698Z,100649.86
2019-05-29T05:54:12.690Z,100650.23
2019-05-29T05:56:41.704Z,100651.96
2019-05-29T05:59:09.707Z,100659.33
2019-05-29T06:01:37.941Z,100662.20
2019-05-29T06:04:05.757Z,100662.20
2019-05-29T06:06:33.902Z,100665.88
2019-05-29T06:09:01.933Z,100670.21
2019-05-29T06:11:29.742Z,100675.17
2019-05-29T06:13:57.543Z,100672.41
2019-05-29T06:16:25.373Z,100683.75
2019-05-29T06:18:53.200Z,100681.07
2019-05-29T06:21:21.103Z,100689.09
2019-05-29T06:23:48.894Z,100690.66
2019-05-29T06:26:16.671Z,100692.81
2019-05-29T06:28:44.479Z,100695.31
2019-05-29T06:31:12.279Z,100697.17
2019-05-29T06:33:40.387Z,100695.78
2019-05-29T06:36:09.228Z,100689.48
2019-05-29T06:38:37.643Z,100707.13
2019-05-29T06:41:05.488Z,100707.30
2019-05-29T06:43:33.806Z,100704.41
2019-05-29T06:46:01.670Z,100715.12
2019-05-29T06:48:58.790Z,100720.14
2019-05-29T06:50:59.378Z,100714.31
2019-05-29T06:53:27.176Z,100724.78
2019-05-29T06:55:56.577Z,100717.28
2019-05-29T06:58:24.724Z,100725.19
2019-05-29T07:00:52.536Z,100732.30
2019-05-29T07:03:20.505Z,100729.25
2019-05-29T07:05:51.383Z,100736.47
2019-05-29T07:08:28.971Z,100743.65
2019-05-29T07:10:48.500Z,100751.60
2019-05-29T07:13:16.363Z,100755.02
2019-05-29T07:15:45.825Z,100757.39
2019-05-29T07:18:13.886Z,100760.34
2019-05-29T07:20:42.663Z,100770.35
2019-05-29T07:23:10.589Z,100768.87
2019-05-29T07:25:38.741Z,100776.20
2019-05-29T07:28:06.660Z,100776.20
2019-05-29T07:30:34.482Z,100773.31
2019-05-29T07:33:02.382Z,100777.12
2019-05-29T07:35:30.334Z,100772.41
2019-05-29T07:37:58.299Z,100769.86
2019-05-29T07:40:26.076Z,100780.38
2019-05-29T07:42:56.595Z,100782.63
2019-05-29T07:45:23.588Z,100792.84
2019-05-29T07:47:51.405Z,100792.37
2019-05-29T07:50:19.406Z,100796.27
2019-05-29T07:52:48.704Z,100794.11
2019-05-29T07:55:16.816Z,100801.11
2019-05-29T07:57:44.882Z,100795.26
2019-05-29T08:00:13.634Z,100790.55
2019-05-29T08:02:41.613Z,100787.98
2019-05-29T08:05:10.028Z,100781.83
2019-05-29T08:07:39.281Z,100784.45
2019-05-29T08:10:08.884Z,100776.07
2019-05-29T08:12:41.078Z,100789.98
2019-05-29T08:15:06.618Z,100787.91
2019-05-29T08:17:34.535Z,100790.67
2019-05-29T08:20:07.476Z,100791.31
2019-05-29T08:22:34.527Z,100792.24
2019-05-29T08:25:02.274Z,100796.93
2019-05-29T08:27:30.040Z,100797.56
2019-05-29T08:29:57.829Z,100794.58
2019-05-29T08:32:25.583Z,100804.16
2019-05-29T08:34:53.411Z,100810.11
2019-05-29T08:37:21.210Z,100801.16
2019-05-29T08:39:49.539Z,100809.05
2019-05-29T08:42:23.108Z,100814.73
2019-05-29T08:44:47.495Z,100810.24
2019-05-29T08:47:15.381Z,100807.33
2019-05-29T08:49:44.005Z,100811.31
2019-05-29T08:52:12.884Z,100806.47
2019-05-29T08:54:41.965Z,100809.16
2019-05-29T08:57:09.904Z,100817.31
2019-05-29T08:59:37.690Z,100816.98
2019-05-29T09:02:05.531Z,100810.25
2019-05-29T09:04:33.378Z,100812.03
2019-05-29T09:07:01.224Z,100825.48
2019-05-29T09:09:29.019Z,100826.05
2019-05-29T09:11:56.805Z,100824.33
2019-05-29T09:14:24.666Z,100827.55
2019-05-29T09:16:52.552Z,100830.20
2019-05-29T09:19:21.086Z,100831.72
2019-05-29T09:21:49.271Z,100834.81
2019-05-29T09:24:17.523Z,100830.84
2019-05-29T09:26:46.629Z,100830.86
2019-05-29T09:29:18.179Z,100828.21
2019-05-29T09:31:44.342Z,100833.53
2019-05-29T09:34:12.108Z,100834.66
2019-05-29T09:36:39.920Z,100836.87
2019-05-29T09:39:08.291Z,100840.83
2019-05-29T09:41:36.100Z,100841.58
2019-05-29T09:44:04.019Z,100839.48
2019-05-29T09:46:31.943Z,100838.72
2019-05-29T09:49:01.626Z,100849.66
2019-05-29T09:51:29.513Z,100850.53
2019-05-29T09:53:59.378Z,100851.70
2019-05-29T09:56:27.103Z,100849.38
2019-05-29T09:58:56.518Z,100852.44
2019-05-29T10:01:25.640Z,100842.16
2019-05-29T10:03:55.336Z,100841.59
2019-05-29T10:06:23.495Z,100847.51
2019-05-29T10:08:51.302Z,100851.29
2019-05-29T10:11:19.111Z,100853.44
2019-05-29T10:13:46.881Z,100854.03
2019-05-29T10:16:14.689Z,100852.06
2019-05-29T10:18:42.512Z,100855.83
2019-05-29T10:21:10.299Z,100853.25
2019-05-29T10:23:38.078Z,100852.88
2019-05-29T10:26:06.549Z,100862.31
2019-05-29T10:28:50.297Z,100861.83
2019-05-29T10:31:05.096Z,100857.12
2019-05-29T10:33:33.223Z,100848.28
2019-05-29T10:36:04.027Z,100857.74
2019-05-29T10:38:30.751Z,100871.01
2019-05-29T10:41:06.302Z,100869.53
2019-05-29T10:43:34.146Z,100852.47
2019-05-29T10:45:57.977Z,100857.16
2019-05-29T10:48:25.765Z,100861.25
2019-05-29T10:50:54.231Z,100873.36
2019-05-29T10:53:23.182Z,100865.17
2019-05-29T10:55:51.014Z,100862.02
2019-05-29T10:58:18.805Z,100869.22
2019-05-29T11:00:47.093Z,100859.36
2019-05-29T11:03:14.965Z,100863.14
2019-05-29T11:05:42.840Z,100858.56
2019-05-29T11:08:10.659Z,100858.44
2019-05-29T11:10:38.439Z,100861.11
2019-05-29T11:13:08.056Z,100867.59
2019-05-29T11:15:35.859Z,100862.48
2019-05-29T11:18:03.711Z,100860.79
2019-05-29T11:20:31.505Z,100859.55
2019-05-29T11:22:59.314Z,100862.94
2019-05-29T11:25:27.883Z,100854.98
2019-05-29T11:27:56.705Z,100851.99
2019-05-29T11:30:24.815Z,100853.58
2019-05-29T11:32:54.994Z,100851.05
2019-05-29T11:35:22.285Z,100848.74
2019-05-29T11:37:50.378Z,100845.06
2019-05-29T11:40:18.625Z,100845.19
2019-05-29T11:42:46.427Z,100852.84
2019-05-29T11:45:15.524Z,100837.31
2019-05-29T11:47:43.338Z,100842.71
2019-05-29T11:50:19.312Z,100849.70
2019-05-29T11:52:43.540Z,100847.84
2019-05-29T11:55:12.416Z,100854.19
2019-05-29T11:57:40.181Z,100850.48
2019-05-29T12:00:19.098Z,100846.28
2019-05-29T12:02:39.104Z,100852.16
2019-05-29T12:05:08.013Z,100844.78
2019-05-29T12:07:35.808Z,100834.03
2019-05-29T12:10:06.211Z,100847.00
2019-05-29T12:12:34.369Z,100838.62
2019-05-29T12:15:12.111Z,100846.33
2019-05-29T12:17:31.906Z,100847.06
2019-05-29T12:20:03.993Z,100844.50
2019-05-29T12:22:31.297Z,100848.81
2019-05-29T12:25:00.275Z,100850.05
2019-05-29T12:27:28.550Z,100855.87
2019-05-29T12:29:56.679Z,100851.88
2019-05-29T12:32:24.584Z,100853.58
2019-05-29T12:34:55.040Z,100842.70
2019-05-29T12:37:22.083Z,100856.31
2019-05-29T12:39:49.860Z,100850.35
2019-05-29T12:42:17.664Z,100847.56
2019-05-29T12:44:45.463Z,100855.34
2019-05-29T12:47:13.305Z,100856.42
2019-05-29T12:49:41.145Z,100853.66
2019-05-29T12:52:09.869Z,100836.19
2019-05-29T12:54:38.086Z,100835.65
2019-05-29T12:57:05.993Z,100838.67
2019-05-29T12:59:33.786Z,100834.56
2019-05-29T13:02:02.695Z,100836.07
2019-05-29T13:04:30.641Z,100839.47
2019-05-29T13:06:58.671Z,100853.37
2019-05-29T13:09:26.653Z,100854.14
2019-05-29T13:11:54.455Z,100853.55
2019-05-29T13:14:22.382Z,100861.70
2019-05-29T13:16:50.125Z,100857.03
2019-05-29T13:19:17.971Z,100869.00
2019-05-29T13:21:45.768Z,100866.78
2019-05-29T13:24:13.588Z,100864.70
2019-05-29T13:26:41.411Z,100863.20
2019-05-29T13:29:09.289Z,100863.27
2019-05-29T13:31:37.142Z,100854.39
2019-05-29T13:34:05.013Z,100851.83
2019-05-29T13:36:32.829Z,100853.00
2019-05-29T13:39:00.620Z,100847.78
2019-05-29T13:41:28.458Z,100849.52
2019-05-29T13:43:56.506Z,100854.42
2019-05-29T13:46:24.373Z,100854.55
2019-05-29T13:48:52.316Z,100858.47
2019-05-29T13:51:20.147Z,100858.17
2019-05-29T13:54:02.007Z,100863.52
2019-05-29T13:56:17.717Z,100858.45
2019-05-29T13:58:45.523Z,100858.80
2019-05-29T14:01:13.331Z,100859.23
2019-05-29T14:03:41.160Z,100856.48
2019-05-29T14:06:09.544Z,100862.01
2019-05-29T14:08:37.483Z,100859.55
2019-05-29T14:11:05.322Z,100851.71
2019-05-29T14:13:33.098Z,100860.67
2019-05-29T14:16:02.276Z,100873.17
2019-05-29T14:18:30.301Z,100865.34
2019-05-29T14:20:58.104Z,100875.15
2019-05-29T14:23:25.881Z,100870.72
2019-05-29T14:25:53.673Z,100879.30
2019-05-29T14:28:21.481Z,100879.80
2019-05-29T14:30:49.551Z,100886.29
2019-05-29T14:33:17.377Z,100880.47
2019-05-29T14:35:45.251Z,100874.53
2019-05-29T14:38:15.079Z,100875.72
2019-05-29T14:40:42.753Z,100883.36
2019-05-29T14:43:13.694Z,100884.06
2019-05-29T14:45:40.390Z,100885.42
2019-05-29T14:48:08.288Z,100879.08
2019-05-29T14:50:36.159Z,100878.10
2019-05-29T14:53:05.019Z,100878.38
2019-05-29T14:55:32.997Z,100881.13
2019-05-29T14:58:00.821Z,100883.64
2019-05-29T15:00:28.698Z,100889.53
2019-05-29T15:02:56.528Z,100888.12
2019-05-29T15:05:24.357Z,100890.22
2019-05-29T15:07:52.134Z,100887.97
2019-05-29T15:10:26.698Z,100887.36
2019-05-29T15:12:49.765Z,100886.28
2019-05-29T15:15:19.998Z,100884.86
2019-05-29T15:17:47.808Z,100888.47
2019-05-29T15:20:16.771Z,100892.25
2019-05-29T15:22:45.044Z,100887.08
2019-05-29T15:25:21.008Z,100886.38
2019-05-29T15:27:43.249Z,100882.48
2019-05-29T15:30:16.140Z,100886.80
2019-05-29T15:32:41.485Z,100889.55
2019-05-29T15:35:13.769Z,100887.92
2019-05-29T15:37:39.452Z,100890.31
2019-05-29T15:40:08.795Z,100890.98
2019-05-29T15:42:37.220Z,100886.31
2019-05-29T15:45:05.903Z,100891.46
2019-05-29T15:47:33.720Z,100899.64
2019-05-29T15:50:01.475Z,100901.84
2019-05-29T15:52:29.295Z,100909.16
2019-05-29T15:54:57.074Z,100901.58
2019-05-29T15:57:24.923Z,100902.34
2019-05-29T15:59:52.806Z,100900.40
2019-05-29T16:02:20.666Z,100901.91
2019-05-29T16:04:48.508Z,100900.31
2019-05-29T16:07:16.333Z,100905.59
2019-05-29T16:09:44.136Z,100902.97
2019-05-29T16:12:12.728Z,100908.63
2019-05-29T16:14:40.645Z,100906.43
2019-05-29T16:17:09.002Z,100906.44
2019-05-29T16:19:36.970Z,100907.38
2019-05-29T16:22:04.783Z,100909.84
2019-05-29T16:24:32.553Z,100905.23
2019-05-29T16:27:08.208Z,100917.32
2019-05-29T16:29:30.086Z,100910.14
2019-05-29T16:31:57.898Z,100913.06
2019-05-29T16:34:25.840Z,100917.30
2019-05-29T16:36:53.670Z,100920.55
2019-05-29T16:39:22.708Z,100918.70
2019-05-29T16:41:50.669Z,100917.16
2019-05-29T16:44:18.469Z,100930.28
2019-05-29T16:46:46.275Z,100921.67
2019-05-29T16:49:14.456Z,100924.08
2019-05-29T16:51:42.403Z,100926.71
2019-05-29T16:54:10.226Z,100928.91
2019-05-29T16:56:38.043Z,100927.70
2019-05-29T16:59:05.833Z,100928.54
2019-05-29T17:01:33.619Z,100937.25
2019-05-29T17:04:01.430Z,100933.94
2019-05-29T17:06:29.208Z,100937.08
2019-05-29T17:08:57.390Z,100934.14
2019-05-29T17:11:25.288Z,100947.59
2019-05-29T17:13:53.047Z,100943.09
2019-05-29T17:16:20.963Z,100947.22
2019-05-29T17:18:49.199Z,100944.12
2019-05-29T17:21:18.385Z,100950.42
2019-05-29T17:23:47.080Z,100951.19
2019-05-29T17:26:14.972Z,100956.30
2019-05-29T17:28:42.760Z,100962.71
2019-05-29T17:31:10.629Z,100957.94
2019-05-29T17:33:38.464Z,100957.25
2019-05-29T17:36:06.282Z,100963.50
2019-05-29T17:38:34.115Z,100956.47
2019-05-29T17:41:01.934Z,100965.69
2019-05-29T17:43:29.758Z,100968.50
2019-05-29T17:45:57.597Z,100967.50
2019-05-29T17:48:25.902Z,100968.00
2019-05-29T17:50:53.925Z,100971.50
2019-05-29T17:53:22.483Z,100969.25
2019-05-29T17:55:50.507Z,100974.45
2019-05-29T17:58:18.678Z,100978.81
2019-05-29T18:00:47.270Z,100979.72
2019-05-29T18:03:16.063Z,100988.52
2019-05-29T18:05:44.031Z,100987.80
2019-05-29T18:08:11.881Z,100988.79
2019-05-29T18:10:39.811Z,100994.56
2019-05-29T18:13:07.698Z,100997.16
2019-05-29T18:15:35.529Z,100995.91
2019-05-29T18:18:03.680Z,100994.59
2019-05-29T18:20:31.498Z,101010.54
2019-05-29T18:22:59.325Z,101008.59
2019-05-29T18:25:28.100Z,101007.53
2019-05-29T18:27:56.067Z,101012.87
2019-05-29T18:30:26.369Z,101015.55
2019-05-29T18:32:54.370Z,101017.32
2019-05-29T18:35:22.908Z,101014.97
2019-05-29T18:37:50.781Z,101023.66
2019-05-29T18:40:22.374Z,101024.91
2019-05-29T18:42:50.347Z,101022.34
2019-05-29T18:45:21.531Z,101028.91
2019-05-29T18:47:49.162Z,101027.52
2019-05-29T18:50:17.292Z,101029.32
2019-05-29T18:52:45.070Z,101033.80
2019-05-29T18:55:13.031Z,101035.80
2019-05-29T18:57:40.899Z,101032.00
2019-05-29T19:00:09.554Z,101033.67
2019-05-29T19:02:37.429Z,101029.47
2019-05-29T19:05:06.067Z,101032.94
2019-05-29T19:07:33.978Z,101038.25
2019-05-29T19:10:01.923Z,101044.08
2019-05-29T19:12:30.114Z,101043.83
2019-05-29T19:14:57.977Z,101049.18
2019-05-29T19:17:25.978Z,101045.44
2019-05-29T19:19:53.868Z,101053.09
2019-05-29T19:22:22.273Z,101055.98
2019-05-29T19:24:50.165Z,101062.45
2019-05-29T19:27:32.085Z,101064.98
2019-05-29T19:29:47.745Z,101071.26
2019-05-29T19:32:15.566Z,101074.17
2019-05-29T19:34:43.370Z,101083.53
2019-05-29T19:37:11.187Z,101087.61
2019-05-29T19:39:38.989Z,101083.63
2019-05-29T19:42:06.834Z,101086.56
2019-05-29T19:44:34.715Z,101088.16
2019-05-29T19:47:02.608Z,101086.94
2019-05-29T19:49:30.902Z,101090.26
2019-05-29T19:51:58.918Z,101093.78
2019-05-29T19:54:27.443Z,101093.78
2019-05-29T19:56:55.419Z,101098.31
2019-05-29T19:59:23.253Z,101100.38
2019-05-29T20:01:51.080Z,101108.66
2019-05-29T20:04:18.944Z,101105.84
2019-05-29T20:06:46.818Z,101109.99
2019-05-29T20:09:14.620Z,101115.05
2019-05-29T20:11:42.480Z,101119.64
2019-05-29T20:14:10.287Z,101121.90
2019-05-29T20:16:39.257Z,101125.16
2019-05-29T20:19:07.248Z,101123.58
2019-05-29T20:21:35.074Z,101118.73
2019-05-29T20:24:03.262Z,101123.87
2019-05-29T20:26:31.055Z,101123.04
2019-05-29T20:28:58.871Z,101127.24
2019-05-29T20:31:26.682Z,101126.31
2019-05-29T20:33:54.577Z,101131.54
2019-05-29T20:36:22.398Z,101127.85
2019-05-29T20:38:50.232Z,101132.21
2019-05-29T20:41:18.030Z,101130.95
2019-05-29T20:43:45.831Z,101138.25
2019-05-29T20:46:13.684Z,101137.66
2019-05-29T20:48:42.753Z,101140.69
2019-05-29T20:51:10.794Z,101139.95
2019-05-29T20:53:40.294Z,101144.77
2019-05-29T20:56:08.374Z,101145.22
2019-05-29T20:58:36.177Z,101150.69
2019-05-29T21:01:04.098Z,101150.17
2019-05-29T21:03:32.274Z,101144.92
2019-05-29T21:06:00.156Z,101151.20
2019-05-29T21:08:27.946Z,101154.98
2019-05-29T21:10:55.819Z,101159.55
2019-05-29T21:13:23.893Z,101158.93
2019-05-29T21:15:51.699Z,101164.37
2019-05-29T21:18:20.333Z,101164.31
2019-05-29T21:20:48.119Z,101166.16
2019-05-29T21:23:15.972Z,101164.98
2019-05-29T21:25:44.865Z,101175.97
2019-05-29T21:28:12.764Z,101181.68
2019-05-29T21:30:41.761Z,101177.55
2019-05-29T21:33:09.668Z,101177.28
2019-05-29T21:35:38.010Z,101176.66
2019-05-29T21:38:05.893Z,101176.63
2019-05-29T21:40:33.772Z,101183.98
2019-05-29T21:43:01.632Z,101178.34
2019-05-29T21:45:29.462Z,101178.66
2019-05-29T21:47:57.294Z,101182.13
2019-05-29T21:50:25.134Z,101187.05
2019-05-29T21:52:54.774Z,101178.92
2019-05-29T21:55:22.611Z,101180.81
2019-05-29T21:57:50.507Z,101179.12
2019-05-29T22:00:30.333Z,101184.08
2019-05-29T22:02:58.248Z,101189.67
2019-05-29T22:05:26.067Z,101184.51
2019-05-29T22:07:54.025Z,101190.07
2019-05-29T22:10:21.978Z,101179.87
2019-05-29T22:12:50.326Z,101177.21
2019-05-29T22:15:18.274Z,101186.69
2019-05-29T22:17:47.153Z,101187.30
2019-05-29T22:20:14.946Z,101189.30
2019-05-29T22:22:42.784Z,101189.17
2019-05-29T22:25:10.733Z,101193.21
2019-05-29T22:27:38.553Z,101196.58
2019-05-29T22:30:08.260Z,101187.91
2019-05-29T22:32:36.027Z,101189.59
2019-05-29T22:35:04.039Z,101194.38
2019-05-29T22:37:31.783Z,101193.77
2019-05-29T22:39:59.699Z,101198.66
2019-05-29T22:42:27.496Z,101200.20
2019-05-29T22:44:55.676Z,101193.53
2019-05-29T22:47:23.502Z,101197.09
2019-05-29T22:49:51.678Z,101200.19
2019-05-29T22:52:19.543Z,101191.45
2019-05-29T22:54:47.369Z,101199.26
2019-05-29T22:57:15.145Z,101198.12
2019-05-29T22:59:42.933Z,101196.16
2019-05-29T23:02:10.825Z,101199.80
2019-05-29T23:04:38.751Z,101199.05
2019-05-29T23:07:06.544Z,101190.42
2019-05-29T23:09:34.332Z,101190.55
2019-05-29T23:12:02.523Z,101186.27
2019-05-29T23:14:30.415Z,101188.98
2019-05-29T23:16:58.616Z,101197.19
2019-05-29T23:19:26.442Z,101194.48
2019-05-29T23:21:54.422Z,101191.14
2019-05-29T23:24:22.283Z,101183.98
2019-05-29T23:26:50.128Z,101186.16
2019-05-29T23:29:17.967Z,101190.94
2019-05-29T23:31:45.850Z,101189.17
2019-05-29T23:34:13.611Z,101191.03
2019-05-29T23:36:41.401Z,101193.73
2019-05-29T23:39:09.200Z,101192.66
2019-05-29T23:41:37.028Z,101186.10
2019-05-29T23:44:04.861Z,101183.56
2019-05-29T23:46:32.729Z,101178.78
2019-05-29T23:49:01.788Z,101173.80
2019-05-29T23:51:29.724Z,101178.20
2019-05-29T23:53:57.750Z,101180.86
2019-05-29T23:56:25.561Z,101177.06
2019-05-29T23:58:53.656Z,101180.42
